Time;durP1;ratioP1;P1;durP2;ratioP2;P2;SDS_P1;SDS_P2;PMS_P1;PMS_P2;Temp;Humidity;BMP_temperature;BMP_pressure;BME280_temperature;BME280_humidity;BME280_pressure;Samples;Min_cycle;Max_cycle;Signal;HPM_P1;HPM_P2
2022/06/26 00:00:00;;;;;;;;;;;;;;;;;;5044483;28;45933;-81
2022/06/26 00:02:26;;;;;;;;;;;;;;;;;;5058985;28;43288;-80
2022/06/26 00:04:52;;;;;;;;;;;;;;;;;;5042177;28;48920;-81
2022/06/26 00:07:19;;;;;;;;;;;;;;;;;;5041375;28;48519;-80
2022/06/26 00:09:46;;;;;;;;;;;;;;;;;;5054512;28;44305;-81
2022/06/26 00:12:12;;;;;;;;;;;;;;;;;;5038459;28;44850;-80
2022/06/26 00:14:38;;;;;;;;;;;;;;;;;;5057351;28;49436;-80
2022/06/26 00:17:05;;;;;;;;;;;;;;;;;;5047311;28;45046;-80
2022/06/26 00:19:32;;;;;;;;;;;;;;;;;;5045878;28;44967;-80
2022/06/26 00:21:59;;;;;;;;;;;;;;;;;;5060514;28;44590;-80
2022/06/26 00:24:25;;;;;;;;;;;;;;;;;;5057554;28;46353;-80
2022/06/26 00:26:51;;;;;;;;;;;;;;;;;;5027980;28;49109;-81
2022/06/26 00:29:18;;;;;;;;;;;;;;;;;;5043520;28;45309;-81
2022/06/26 00:31:44;;;;;;;;;;;;;;;;;;5040456;28;46580;-80
2022/06/26 00:34:10;;;;;;;;;;;;;;;;;;5059148;28;46857;-81
2022/06/26 00:36:36;;;;;;;;;;;;;;;;;;5064922;28;46472;-80
2022/06/26 00:39:03;;;;;;;;;;;;;;;;;;5061957;28;47398;-80
2022/06/26 00:41:29;;;;;;;;;;;;;;;;;;5043215;28;45234;-81
2022/06/26 00:43:55;;;;;;;;;;;;;;;;;;5062546;28;46048;-81
2022/06/26 00:46:24;;;;;;;;;;;;;;;;;;5064757;28;48700;-80
2022/06/26 00:48:50;;;;;;;;;;;;;;;;;;5040714;28;46640;-80
2022/06/26 00:51:17;;;;;;;;;;;;;;;;;;5043382;28;44840;-80
2022/06/26 00:53:43;;;;;;;;;;;;;;;;;;5045108;28;47244;-79
2022/06/26 00:56:09;;;;;;;;;;;;;;;;;;5046976;28;45654;-79
2022/06/26 00:58:36;;;;;;;;;;;;;;;;;;5039420;28;45751;-80
2022/06/26 01:01:02;;;;;;;;;;;;;;;;;;5045940;28;49004;-80
2022/06/26 01:03:28;;;;;;;;;;;;;;;;;;5062534;28;44601;-80
2022/06/26 01:05:54;;;;;;;;;;;;;;;;;;5048214;28;49252;-80
2022/06/26 01:08:21;;;;;;;;;;;;;;;;;;5046143;28;45749;-80
2022/06/26 01:10:47;;;;;;;;;;;;;;;;;;5043107;28;45325;-80
2022/06/26 01:13:13;;;;;;;;;;;;;;;;;;5059365;28;48782;-82
2022/06/26 01:15:39;;;;;;;;;;;;;;;;;;5041901;28;42143;-80
2022/06/26 01:18:06;;;;;;;;;;;;;;;;;;5031046;28;44866;-80
2022/06/26 01:20:32;;;;;;;;;;;;;;;;;;5063386;28;48083;-80
2022/06/26 01:22:58;;;;;;;;;;;;;;;;;;5043160;28;45832;-80
2022/06/26 01:25:25;;;;;;;;;;;;;;;;;;5050922;28;48336;-80
2022/06/26 01:27:51;;;;;;;;;;;;;;;;;;5052733;28;44695;-80
2022/06/26 01:30:17;;;;;;;;;;;;;;;;;;5069926;28;47951;-81
2022/06/26 01:32:43;;;;;;;;;;;;;;;;;;5058649;28;45212;-81
2022/06/26 01:35:10;;;;;;;;;;;;;;;;;;5045504;28;45666;-80
2022/06/26 01:37:36;;;;;;;;;;;;;;;;;;5048895;28;45578;-80
2022/06/26 01:40:03;;;;;;;;;;;;;;;;;;5051258;28;48823;-80
2022/06/26 01:42:29;;;;;;;;;;;;;;;;;;5067434;28;42941;-80
2022/06/26 01:44:55;;;;;;;;;;;;;;;;;;5045161;28;48402;-80
2022/06/26 01:47:22;;;;;;;;;;;;;;;;;;5047465;28;47016;-80
2022/06/26 01:49:48;;;;;;;;;;;;;;;;;;5071474;28;46495;-80
2022/06/26 01:52:15;;;;;;;;;;;;;;;;;;5047054;28;46260;-80
2022/06/26 01:54:41;;;;;;;;;;;;;;;;;;5043819;28;43842;-80
2022/06/26 01:57:08;;;;;;;;;;;;;;;;;;5041541;28;45031;-80
2022/06/26 01:59:34;;;;;;;;;;;;;;;;;;5073723;28;48613;-80
2022/06/26 02:02:00;;;;;;;;;;;;;;;;;;5052736;28;45060;-80
2022/06/26 02:04:26;;;;;;;;;;;;;;;;;;5050161;28;46208;-80
2022/06/26 02:06:53;;;;;;;;;;;;;;;;;;5065793;28;45928;-80
2022/06/26 02:14:52;;;;;;;;;;;;;;;;;;5067577;28;46352;-80
2022/06/26 02:17:18;;;;;;;;;;;;;;;;;;5066039;28;46199;-80
2022/06/26 02:19:45;;;;;;;;;;;;;;;;;;5050136;28;47243;-80
2022/06/26 02:22:11;;;;;;;;;;;;;;;;;;5049270;28;43201;-80
2022/06/26 02:24:39;;;;;;;;;;;;;;;;;;5049596;28;45057;-80
2022/06/26 02:27:05;;;;;;;;;;;;;;;;;;5065708;28;47016;-80
2022/06/26 02:29:31;;;;;;;;;;;;;;;;;;5049741;28;45362;-80
2022/06/26 02:31:58;;;;;;;;;;;;;;;;;;5050760;28;48311;-80
2022/06/26 02:34:24;;;;;;;;;;;;;;;;;;5064466;28;43658;-80
2022/06/26 02:36:50;;;;;;;;;;;;;;;;;;5048505;28;47569;-80
2022/06/26 02:39:16;;;;;;;;;;;;;;;;;;5045454;28;49583;-80
2022/06/26 02:41:46;;;;;;;;;;;;;;;;;;5066243;28;44024;-80
2022/06/26 02:44:12;;;;;;;;;;;;;;;;;;5045913;28;47335;-80
2022/06/26 02:46:38;;;;;;;;;;;;;;;;;;5045715;28;47230;-80
2022/06/26 02:49:05;;;;;;;;;;;;;;;;;;5047361;28;44735;-80
2022/06/26 02:51:31;;;;;;;;;;;;;;;;;;5050017;28;45615;-81
2022/06/26 02:53:57;;;;;;;;;;;;;;;;;;5062643;28;45085;-80
2022/06/26 02:56:23;;;;;;;;;;;;;;;;;;5057356;28;45760;-80
2022/06/26 02:58:50;;;;;;;;;;;;;;;;;;5042753;28;44335;-80
2022/06/26 03:01:16;;;;;;;;;;;;;;;;;;5049303;28;43150;-80
2022/06/26 03:03:42;;;;;;;;;;;;;;;;;;5072808;28;46662;-81
2022/06/26 03:06:09;;;;;;;;;;;;;;;;;;5074208;28;48669;-81
2022/06/26 03:08:35;;;;;;;;;;;;;;;;;;5075144;28;43502;-80
2022/06/26 03:11:01;;;;;;;;;;;;;;;;;;5055062;28;46384;-80
2022/06/26 03:13:28;;;;;;;;;;;;;;;;;;5077043;28;46846;-79
2022/06/26 03:15:54;;;;;;;;;;;;;;;;;;5050108;28;46467;-79
2022/06/26 03:18:20;;;;;;;;;;;;;;;;;;5053936;28;47149;-80
2022/06/26 03:20:46;;;;;;;;;;;;;;;;;;5069256;28;44642;-80
2022/06/26 03:23:12;;;;;;;;;;;;;;;;;;5056759;28;47953;-80
2022/06/26 03:25:39;;;;;;;;;;;;;;;;;;5056646;28;44821;-80
2022/06/26 03:28:05;;;;;;;;;;;;;;;;;;5050797;28;45059;-80
2022/06/26 03:30:31;;;;;;;;;;;;;;;;;;5048873;28;46886;-80
2022/06/26 03:32:58;;;;;;;;;;;;;;;;;;5072868;28;45729;-80
2022/06/26 03:35:24;;;;;;;;;;;;;;;;;;5055082;28;44534;-80
2022/06/26 03:37:50;;;;;;;;;;;;;;;;;;5065893;28;46955;-80
2022/06/26 03:40:16;;;;;;;;;;;;;;;;;;5055778;28;46953;-79
2022/06/26 03:42:43;;;;;;;;;;;;;;;;;;5057384;28;47442;-79
2022/06/26 03:45:09;;;;;;;;;;;;;;;;;;5054794;28;46941;-79
2022/06/26 03:47:36;;;;;;;;;;;;;;;;;;5048036;28;44063;-79
2022/06/26 03:50:03;;;;;;;;;;;;;;;;;;5055703;28;44686;-79
2022/06/26 03:52:29;;;;;;;;;;;;;;;;;;5056473;28;46922;-80
2022/06/26 03:54:55;;;;;;;;;;;;;;;;;;5056574;28;44760;-79
2022/06/26 03:57:21;;;;;;;;;;;;;;;;;;5051881;28;47826;-80
2022/06/26 03:59:49;;;;;;;;;;;;;;;;;;5072269;28;45783;-80
2022/06/26 04:02:15;;;;;;;;;;;;;;;;;;5055805;28;49064;-80
2022/06/26 04:04:42;;;;;;;;;;;;;;;;;;5054425;28;46802;-80
2022/06/26 04:07:08;;;;;;;;;;;;;;;;;;5046533;28;45011;-80
2022/06/26 04:09:34;;;;;;;;;;;;;;;;;;5050201;28;48269;-80
2022/06/26 04:12:00;;;;;;;;;;;;;;;;;;5057592;28;45771;-80
2022/06/26 04:14:27;;;;;;;;;;;;;;;;;;5057405;28;44625;-80
2022/06/26 04:16:53;;;;;;;;;;;;;;;;;;5053274;28;44194;-80
2022/06/26 04:19:19;;;;;;;;;;;;;;;;;;5052889;28;46812;-80
2022/06/26 04:21:46;;;;;;;;;;;;;;;;;;5057205;28;45819;-80
2022/06/26 04:24:15;;;;;;;;;;;;;;;;;;5037745;28;48328;-81
2022/06/26 04:26:41;;;;;;;;;;;;;;;;;;5047094;28;46960;-80
2022/06/26 04:29:07;;;;;;;;;;;;;;;;;;5072523;28;45590;-80
2022/06/26 04:31:34;;;;;;;;;;;;;;;;;;5056134;28;44220;-80
2022/06/26 04:34:03;;;;;;;;;;;;;;;;;;5072316;28;44441;-79
2022/06/26 04:36:29;;;;;;;;;;;;;;;;;;5069168;28;46463;-80
2022/06/26 04:38:55;;;;;;;;;;;;;;;;;;5053053;28;46911;-80
2022/06/26 04:41:31;;;;;;;;;;;;;;;;;;5055895;28;44927;-80
2022/06/26 04:43:57;;;;;;;;;;;;;;;;;;5057435;28;46596;-80
2022/06/26 04:46:24;;;;;;;;;;;;;;;;;;5063991;28;46782;-79
2022/06/26 04:48:51;;;;;;;;;;;;;;;;;;5071486;28;49522;-80
2022/06/26 04:51:17;;;;;;;;;;;;;;;;;;5056448;28;47276;-80
2022/06/26 04:53:43;;;;;;;;;;;;;;;;;;5056014;28;43060;-80
2022/06/26 04:56:09;;;;;;;;;;;;;;;;;;5049332;28;46388;-80
2022/06/26 04:58:37;;;;;;;;;;;;;;;;;;5070845;28;19929;-80
2022/06/26 05:01:04;;;;;;;;;;;;;;;;;;5057916;28;42844;-80
2022/06/26 05:03:31;;;;;;;;;;;;;;;;;;5055026;28;46996;-79
2022/06/26 05:06:00;;;;;;;;;;;;;;;;;;5054322;28;44737;-79
2022/06/26 05:08:27;;;;;;;;;;;;;;;;;;5052517;28;46807;-79
2022/06/26 05:10:53;;;;;;;;;;;;;;;;;;5055447;28;47794;-79
2022/06/26 05:13:19;;;;;;;;;;;;;;;;;;5052090;28;44258;-80
2022/06/26 05:15:46;;;;;;;;;;;;;;;;;;5038399;28;46027;-80
2022/06/26 05:18:13;;;;;;;;;;;;;;;;;;5056656;28;48373;-81
2022/06/26 05:20:39;;;;;;;;;;;;;;;;;;5059713;28;43313;-80
2022/06/26 05:23:07;;;;;;;;;;;;;;;;;;5058353;28;44906;-80
2022/06/26 05:25:34;;;;;;;;;;;;;;;;;;5054112;28;42525;-80
2022/06/26 05:28:00;;;;;;;;;;;;;;;;;;5053796;28;44537;-80
2022/06/26 05:30:29;;;;;;;;;;;;;;;;;;5071251;28;47201;-80
2022/06/26 05:32:56;;;;;;;;;;;;;;;;;;5056937;28;46455;-80
2022/06/26 05:35:22;;;;;;;;;;;;;;;;;;5072622;28;46728;-81
2022/06/26 05:37:48;;;;;;;;;;;;;;;;;;5050534;28;47189;-79
2022/06/26 05:40:14;;;;;;;;;;;;;;;;;;5067116;28;44710;-81
2022/06/26 05:42:41;;;;;;;;;;;;;;;;;;5050602;28;49358;-81
2022/06/26 05:45:07;;;;;;;;;;;;;;;;;;5047567;28;46993;-79
2022/06/26 05:47:33;;;;;;;;;;;;;;;;;;5046005;28;44819;-79
2022/06/26 05:50:00;;;;;;;;;;;;;;;;;;5048508;28;47435;-80
2022/06/26 05:52:26;;;;;;;;;;;;;;;;;;5068257;28;44770;-78
2022/06/26 05:54:52;;;;;;;;;;;;;;;;;;5067378;28;46496;-81
2022/06/26 05:57:22;;;;;;;;;;;;;;;;;;5060007;28;48066;-81
2022/06/26 05:59:48;;;;;;;;;;;;;;;;;;5068486;28;44702;-81
2022/06/26 06:02:17;;;;;;;;;;;;;;;;;;5048564;28;45246;-82
2022/06/26 06:04:43;;;;;;;;;;;;;;;;;;5061374;28;46758;-81
2022/06/26 06:07:15;;;;;;;;;;;;;;;;;;5038370;28;41870;-82
2022/06/26 06:09:41;;;;;;;;;;;;;;;;;;5063159;28;45686;-82
2022/06/26 06:12:07;;;;;;;;;;;;;;;;;;5066578;28;44987;-82
2022/06/26 06:14:34;;;;;;;;;;;;;;;;;;5045088;28;44737;-82
2022/06/26 06:17:35;;;;;;;;;;;;;;;;;;5046901;28;45823;-82
2022/06/26 06:19:46;;;;;;;;;;;;;;;;;;5070384;28;45934;-82
2022/06/26 06:22:12;;;;;;;;;;;;;;;;;;5065935;28;45558;-81
2022/06/26 06:24:42;;;;;;;;;;;;;;;;;;5051119;28;50015;-81
2022/06/26 06:27:08;;;;;;;;;;;;;;;;;;5068099;28;47855;-81
2022/06/26 06:29:34;;;;;;;;;;;;;;;;;;5054461;28;45634;-81
2022/06/26 06:32:00;;;;;;;;;;;;;;;;;;5065575;28;45713;-81
2022/06/26 06:34:27;;;;;;;;;;;;;;;;;;5049083;28;46689;-82
2022/06/26 06:36:53;;;;;;;;;;;;;;;;;;5045847;28;47010;-82
2022/06/26 06:39:20;;;;;;;;;;;;;;;;;;5051161;28;44588;-82
2022/06/26 06:41:46;;;;;;;;;;;;;;;;;;5065442;28;46480;-81
2022/06/26 06:44:12;;;;;;;;;;;;;;;;;;5050144;28;49733;-81
2022/06/26 06:46:39;;;;;;;;;;;;;;;;;;5065505;28;44364;-81
2022/06/26 06:49:05;;;;;;;;;;;;;;;;;;5047438;28;44374;-81
2022/06/26 06:51:31;;;;;;;;;;;;;;;;;;5067521;28;34810;-81
2022/06/26 06:53:57;;;;;;;;;;;;;;;;;;5048843;28;46310;-80
2022/06/26 06:56:24;;;;;;;;;;;;;;;;;;5047436;28;45657;-80
2022/06/26 06:58:50;;;;;;;;;;;;;;;;;;5047015;28;46133;-80
2022/06/26 07:01:16;;;;;;;;;;;;;;;;;;5061133;28;45404;-80
2022/06/26 07:03:42;;;;;;;;;;;;;;;;;;5041579;28;45471;-80
2022/06/26 07:06:09;;;;;;;;;;;;;;;;;;5040944;28;42402;-80
2022/06/26 07:08:35;;;;;;;;;;;;;;;;;;5064367;28;45854;-79
2022/06/26 07:11:04;;;;;;;;;;;;;;;;;;5063973;28;46185;-81
2022/06/26 07:13:31;;;;;;;;;;;;;;;;;;5066963;28;44868;-79
2022/06/26 07:15:57;;;;;;;;;;;;;;;;;;5047547;28;46130;-80
2022/06/26 07:18:24;;;;;;;;;;;;;;;;;;5045460;28;45025;-80
2022/06/26 07:20:50;;;;;;;;;;;;;;;;;;5036252;28;45687;-80
2022/06/26 07:23:16;;;;;;;;;;;;;;;;;;5049528;28;47804;-80
2022/06/26 07:25:42;;;;;;;;;;;;;;;;;;5046327;28;44704;-80
2022/06/26 07:28:09;;;;;;;;;;;;;;;;;;5045284;28;46267;-80
2022/06/26 07:30:35;;;;;;;;;;;;;;;;;;5062862;28;46864;-80
2022/06/26 07:33:01;;;;;;;;;;;;;;;;;;5066079;28;45051;-80
2022/06/26 07:35:29;;;;;;;;;;;;;;;;;;5059450;28;46986;-80
2022/06/26 07:37:55;;;;;;;;;;;;;;;;;;5047616;28;43338;-80
2022/06/26 07:40:21;;;;;;;;;;;;;;;;;;5046189;28;47617;-79
2022/06/26 07:42:48;;;;;;;;;;;;;;;;;;5059551;28;48051;-79
2022/06/26 07:45:14;;;;;;;;;;;;;;;;;;5066504;28;44387;-78
2022/06/26 07:47:40;;;;;;;;;;;;;;;;;;5034906;28;48111;-79
2022/06/26 07:50:06;;;;;;;;;;;;;;;;;;5060656;28;47087;-78
2022/06/26 07:52:33;;;;;;;;;;;;;;;;;;5045855;28;45039;-80
2022/06/26 07:54:59;;;;;;;;;;;;;;;;;;5065699;28;47900;-79
2022/06/26 07:57:25;;;;;;;;;;;;;;;;;;5042599;28;47220;-79
2022/06/26 07:59:52;;;;;;;;;;;;;;;;;;5063938;28;49155;-79
2022/06/26 08:02:18;;;;;;;;;;;;;;;;;;5044333;28;46579;-79
2022/06/26 08:04:44;;;;;;;;;;;;;;;;;;5052116;28;45946;-79
2022/06/26 08:07:11;;;;;;;;;;;;;;;;;;5046546;28;46731;-79
2022/06/26 08:09:38;;;;;;;;;;;;;;;;;;5056185;28;46229;-78
2022/06/26 08:12:07;;;;;;;;;;;;;;;;;;5036662;28;44690;-79
2022/06/26 08:14:33;;;;;;;;;;;;;;;;;;5041567;28;47667;-79
2022/06/26 08:16:59;;;;;;;;;;;;;;;;;;5041963;28;46884;-78
2022/06/26 08:19:35;;;;;;;;;;;;;;;;;;5065154;28;44624;-79
2022/06/26 08:22:01;;;;;;;;;;;;;;;;;;5030592;28;47237;-80
2022/06/26 08:24:27;;;;;;;;;;;;;;;;;;5061397;28;46077;-80
2022/06/26 08:26:54;;;;;;;;;;;;;;;;;;5058653;28;45830;-81
2022/06/26 08:29:20;;;;;;;;;;;;;;;;;;5045337;28;48115;-80
2022/06/26 08:32:02;;;;;;;;;;;;;;;;;;5045453;28;43313;-80
2022/06/26 08:34:31;;;;;;;;;;;;;;;;;;5035435;28;46476;-80
2022/06/26 08:36:57;;;;;;;;;;;;;;;;;;5054168;28;45543;-80
2022/06/26 08:39:24;;;;;;;;;;;;;;;;;;5034438;28;44592;-80
2022/06/26 08:41:50;;;;;;;;;;;;;;;;;;5034282;28;49160;-80
2022/06/26 08:44:16;;;;;;;;;;;;;;;;;;5053007;28;45645;-81
2022/06/26 08:46:45;;;;;;;;;;;;;;;;;;5040871;28;47508;-80
2022/06/26 08:49:12;;;;;;;;;;;;;;;;;;5052466;28;47303;-80
2022/06/26 08:51:38;;;;;;;;;;;;;;;;;;5043466;28;47600;-80
2022/06/26 08:54:05;;;;;;;;;;;;;;;;;;5039629;28;45828;-80
2022/06/26 08:56:31;;;;;;;;;;;;;;;;;;5025417;28;48142;-78
2022/06/26 08:59:00;;;;;;;;;;;;;;;;;;5053962;28;44869;-78
2022/06/26 09:01:27;;;;;;;;;;;;;;;;;;5040118;28;44064;-79
2022/06/26 09:03:53;;;;;;;;;;;;;;;;;;5044318;28;45492;-78
2022/06/26 09:06:19;;;;;;;;;;;;;;;;;;5045017;28;45733;-79
2022/06/26 09:08:48;;;;;;;;;;;;;;;;;;5028447;28;48090;-78
2022/06/26 09:11:15;;;;;;;;;;;;;;;;;;5028624;28;43130;-80
2022/06/26 09:13:42;;;;;;;;;;;;;;;;;;5055306;28;47686;-78
2022/06/26 09:16:08;;;;;;;;;;;;;;;;;;5038719;28;49042;-78
2022/06/26 09:18:37;;;;;;;;;;;;;;;;;;5042768;28;49139;-79
2022/06/26 09:21:04;;;;;;;;;;;;;;;;;;5039879;28;44667;-79
2022/06/26 09:23:31;;;;;;;;;;;;;;;;;;5049533;28;44917;-79
2022/06/26 09:25:57;;;;;;;;;;;;;;;;;;5056580;28;47850;-79
2022/06/26 09:28:23;;;;;;;;;;;;;;;;;;5044885;28;48181;-78
2022/06/26 09:30:50;;;;;;;;;;;;;;;;;;5058732;28;43286;-78
2022/06/26 09:33:17;;;;;;;;;;;;;;;;;;5061819;28;42959;-79
2022/06/26 09:35:43;;;;;;;;;;;;;;;;;;5045976;28;48096;-78
2022/06/26 09:38:09;;;;;;;;;;;;;;;;;;5054283;28;47870;-79
2022/06/26 09:40:36;;;;;;;;;;;;;;;;;;5041867;28;47294;-79
2022/06/26 09:43:02;;;;;;;;;;;;;;;;;;5065014;28;46933;-79
2022/06/26 09:45:28;;;;;;;;;;;;;;;;;;5036278;28;45954;-78
2022/06/26 09:47:54;;;;;;;;;;;;;;;;;;5037408;28;48108;-79
2022/06/26 09:50:21;;;;;;;;;;;;;;;;;;5041776;28;44325;-79
2022/06/26 09:52:47;;;;;;;;;;;;;;;;;;5034600;28;49549;-79
2022/06/26 09:55:14;;;;;;;;;;;;;;;;;;5061107;28;48568;-78
2022/06/26 09:57:40;;;;;;;;;;;;;;;;;;5041765;28;43586;-79
2022/06/26 10:00:06;;;;;;;;;;;;;;;;;;5063641;28;46260;-79
2022/06/26 10:08:03;;;;;;;;;;;;;;;;;;5060795;28;47787;-79
2022/06/26 10:10:29;;;;;;;;;;;;;;;;;;5064086;28;45897;-79
2022/06/26 10:12:55;;;;;;;;;;;;;;;;;;5057341;28;45606;-79
2022/06/26 10:15:22;;;;;;;;;;;;;;;;;;5050956;28;49598;-79
2022/06/26 10:17:48;;;;;;;;;;;;;;;;;;5038449;28;44326;-79
2022/06/26 10:20:14;;;;;;;;;;;;;;;;;;5038523;28;46478;-79
2022/06/26 10:22:40;;;;;;;;;;;;;;;;;;5040893;28;46981;-77
2022/06/26 10:25:07;;;;;;;;;;;;;;;;;;5046472;28;44744;-79
2022/06/26 10:27:33;;;;;;;;;;;;;;;;;;5043775;28;45995;-78
2022/06/26 10:30:02;;;;;;;;;;;;;;;;;;5061218;28;45955;-78
2022/06/26 10:32:30;;;;;;;;;;;;;;;;;;5054221;28;47905;-78
2022/06/26 10:34:56;;;;;;;;;;;;;;;;;;5062945;28;48671;-79
2022/06/26 10:37:22;;;;;;;;;;;;;;;;;;5052662;28;44737;-78
2022/06/26 10:39:52;;;;;;;;;;;;;;;;;;5063193;28;46394;-78
2022/06/26 10:45:04;;;;;;;;;;;;;;;;;;5057896;28;46099;-79
2022/06/26 10:47:30;;;;;;;;;;;;;;;;;;5065358;28;46220;-77
2022/06/26 10:49:57;;;;;;;;;;;;;;;;;;5036556;28;48464;-78
2022/06/26 10:52:23;;;;;;;;;;;;;;;;;;5062636;28;47986;-78
2022/06/26 10:54:50;;;;;;;;;;;;;;;;;;5058291;28;47082;-78
2022/06/26 10:57:17;;;;;;;;;;;;;;;;;;5059466;28;45037;-78
2022/06/26 10:59:43;;;;;;;;;;;;;;;;;;5056022;28;48193;-78
2022/06/26 11:02:09;;;;;;;;;;;;;;;;;;5056140;28;47058;-78
2022/06/26 11:04:39;;;;;;;;;;;;;;;;;;5065808;28;44736;-79
2022/06/26 11:07:05;;;;;;;;;;;;;;;;;;5063260;28;46360;-80
2022/06/26 11:09:31;;;;;;;;;;;;;;;;;;5038273;28;48466;-78
2022/06/26 11:11:58;;;;;;;;;;;;;;;;;;5043177;28;46483;-78
2022/06/26 11:14:24;;;;;;;;;;;;;;;;;;5056202;28;48400;-78
2022/06/26 11:16:50;;;;;;;;;;;;;;;;;;5048808;28;42885;-78
2022/06/26 11:19:16;;;;;;;;;;;;;;;;;;5048127;28;46918;-77
2022/06/26 11:21:43;;;;;;;;;;;;;;;;;;5069198;28;47385;-78
2022/06/26 11:24:09;;;;;;;;;;;;;;;;;;5052812;28;44699;-78
2022/06/26 11:26:35;;;;;;;;;;;;;;;;;;5044097;28;46380;-78
2022/06/26 11:29:04;;;;;;;;;;;;;;;;;;5059557;28;45835;-78
2022/06/26 11:31:30;;;;;;;;;;;;;;;;;;5059951;28;45415;-78
2022/06/26 11:33:57;;;;;;;;;;;;;;;;;;5060795;28;47698;-78
2022/06/26 11:36:23;;;;;;;;;;;;;;;;;;5059355;28;43562;-78
2022/06/26 11:38:52;;;;;;;;;;;;;;;;;;5058522;28;43771;-78
2022/06/26 11:41:22;;;;;;;;;;;;;;;;;;5036816;28;49330;-78
2022/06/26 11:43:48;;;;;;;;;;;;;;;;;;5046397;28;44817;-79
2022/06/26 11:46:14;;;;;;;;;;;;;;;;;;5033886;28;47649;-78
2022/06/26 11:48:41;;;;;;;;;;;;;;;;;;5058307;28;48335;-78
2022/06/26 11:51:07;;;;;;;;;;;;;;;;;;5042973;28;43366;-79
2022/06/26 11:53:33;;;;;;;;;;;;;;;;;;5065770;28;47354;-78
2022/06/26 11:55:59;;;;;;;;;;;;;;;;;;5056550;28;44729;-79
2022/06/26 11:58:28;;;;;;;;;;;;;;;;;;5057554;28;44876;-79
2022/06/26 12:00:54;;;;;;;;;;;;;;;;;;5057339;28;48134;-79
2022/06/26 12:03:21;;;;;;;;;;;;;;;;;;5048005;28;45078;-79
2022/06/26 12:05:47;;;;;;;;;;;;;;;;;;5060120;28;50577;-79
2022/06/26 12:08:13;;;;;;;;;;;;;;;;;;5053145;28;45634;-78
2022/06/26 12:10:40;;;;;;;;;;;;;;;;;;5046321;28;45841;-79
2022/06/26 12:13:09;;;;;;;;;;;;;;;;;;5046989;28;47454;-79
2022/06/26 12:15:35;;;;;;;;;;;;;;;;;;5041649;28;48236;-79
2022/06/26 12:18:02;;;;;;;;;;;;;;;;;;5038272;28;45115;-80
2022/06/26 12:20:28;;;;;;;;;;;;;;;;;;5039747;28;45568;-80
2022/06/26 12:22:54;;;;;;;;;;;;;;;;;;5050840;28;43109;-81
2022/06/26 12:25:20;;;;;;;;;;;;;;;;;;5056054;28;47246;-80
2022/06/26 12:27:47;;;;;;;;;;;;;;;;;;5040244;28;48017;-80
2022/06/26 12:30:13;;;;;;;;;;;;;;;;;;5034536;28;45973;-78
2022/06/26 12:32:51;;;;;;;;;;;;;;;;;;5049435;28;47671;-79
2022/06/26 12:35:18;;;;;;;;;;;;;;;;;;5051625;28;48803;-79
2022/06/26 12:37:44;;;;;;;;;;;;;;;;;;5051702;28;45284;-79
2022/06/26 12:40:14;;;;;;;;;;;;;;;;;;5042600;28;48078;-79
2022/06/26 12:42:40;;;;;;;;;;;;;;;;;;5033370;28;43787;-79
2022/06/26 12:45:07;;;;;;;;;;;;;;;;;;5041054;28;44988;-79
2022/06/26 12:47:33;;;;;;;;;;;;;;;;;;5061796;28;46149;-79
2022/06/26 12:50:00;;;;;;;;;;;;;;;;;;5044756;28;43456;-78
2022/06/26 12:52:27;;;;;;;;;;;;;;;;;;5048443;28;47563;-83
2022/06/26 12:54:53;;;;;;;;;;;;;;;;;;5063424;28;43174;-83
2022/06/26 12:57:20;;;;;;;;;;;;;;;;;;5038461;28;47454;-82
2022/06/26 12:59:46;;;;;;;;;;;;;;;;;;5059694;28;43851;-82
2022/06/26 13:02:12;;;;;;;;;;;;;;;;;;5054331;28;46568;-84
2022/06/26 13:04:39;;;;;;;;;;;;;;;;;;5062784;28;45069;-82
2022/06/26 13:07:05;;;;;;;;;;;;;;;;;;5044313;28;47992;-83
2022/06/26 13:09:31;;;;;;;;;;;;;;;;;;5064927;28;44590;-84
2022/06/26 13:11:57;;;;;;;;;;;;;;;;;;5060187;28;47909;-80
2022/06/26 13:14:24;;;;;;;;;;;;;;;;;;5050440;28;47770;-81
2022/06/26 13:16:50;;;;;;;;;;;;;;;;;;5064548;28;45161;-81
2022/06/26 13:19:16;;;;;;;;;;;;;;;;;;5050996;28;47040;-85
2022/06/26 13:21:43;;;;;;;;;;;;;;;;;;5066482;28;45758;-84
2022/06/26 13:24:10;;;;;;;;;;;;;;;;;;5064700;28;45229;-83
2022/06/26 13:26:37;;;;;;;;;;;;;;;;;;5059404;28;45009;-81
2022/06/26 13:29:03;;;;;;;;;;;;;;;;;;5067167;28;44943;-85
2022/06/26 13:31:29;;;;;;;;;;;;;;;;;;5055589;28;48291;-84
2022/06/26 13:33:56;;;;;;;;;;;;;;;;;;5045412;28;48345;-81
2022/06/26 13:36:22;;;;;;;;;;;;;;;;;;5052536;28;46788;-82
2022/06/26 13:38:49;;;;;;;;;;;;;;;;;;5068264;28;45332;-81
2022/06/26 13:41:15;;;;;;;;;;;;;;;;;;5057850;28;46969;-80
2022/06/26 13:43:42;;;;;;;;;;;;;;;;;;5044764;28;47564;-83
2022/06/26 13:46:08;;;;;;;;;;;;;;;;;;5043477;28;47045;-83
2022/06/26 13:48:34;;;;;;;;;;;;;;;;;;5069702;28;42932;-81
2022/06/26 13:51:00;;;;;;;;;;;;;;;;;;5061749;28;46392;-81
2022/06/26 13:53:27;;;;;;;;;;;;;;;;;;5051287;28;47956;-81
2022/06/26 13:55:53;;;;;;;;;;;;;;;;;;5059608;28;45243;-83
2022/06/26 13:58:20;;;;;;;;;;;;;;;;;;5069360;28;49514;-81
2022/06/26 14:00:46;;;;;;;;;;;;;;;;;;5043711;28;49665;-81
2022/06/26 14:03:12;;;;;;;;;;;;;;;;;;5048955;28;44447;-81
2022/06/26 14:05:38;;;;;;;;;;;;;;;;;;5050112;28;46832;-80
2022/06/26 14:08:05;;;;;;;;;;;;;;;;;;5049508;28;45153;-80
2022/06/26 14:10:31;;;;;;;;;;;;;;;;;;5048152;28;48590;-83
2022/06/26 14:12:58;;;;;;;;;;;;;;;;;;5065644;28;48818;-82
2022/06/26 14:15:24;;;;;;;;;;;;;;;;;;5039365;28;43406;-83
2022/06/26 14:17:50;;;;;;;;;;;;;;;;;;5054415;28;43752;-80
2022/06/26 14:20:16;;;;;;;;;;;;;;;;;;5064435;28;46090;-81
2022/06/26 14:28:14;;;;;;;;;;;;;;;;;;5048973;28;43628;-77
2022/06/26 14:30:40;;;;;;;;;;;;;;;;;;5038692;28;47497;-78
2022/06/26 14:33:06;;;;;;;;;;;;;;;;;;5034620;28;47418;-79
2022/06/26 14:35:32;;;;;;;;;;;;;;;;;;5044055;28;43513;-78
2022/06/26 14:37:59;;;;;;;;;;;;;;;;;;5064210;28;45360;-77
2022/06/26 14:40:25;;;;;;;;;;;;;;;;;;5040913;28;47116;-76
2022/06/26 14:42:51;;;;;;;;;;;;;;;;;;5056854;28;42749;-77
2022/06/26 14:45:18;;;;;;;;;;;;;;;;;;5037232;28;47464;-77
2022/06/26 14:47:44;;;;;;;;;;;;;;;;;;5056704;28;48286;-77
2022/06/26 14:50:14;;;;;;;;;;;;;;;;;;5061989;28;47192;-77
2022/06/26 14:52:40;;;;;;;;;;;;;;;;;;5057867;28;48084;-78
2022/06/26 14:55:07;;;;;;;;;;;;;;;;;;5058528;28;44672;-77
2022/06/26 14:57:33;;;;;;;;;;;;;;;;;;5062651;28;46900;-77
2022/06/26 14:59:59;;;;;;;;;;;;;;;;;;5050901;28;46936;-77
2022/06/26 15:02:28;;;;;;;;;;;;;;;;;;5060836;28;44603;-77
2022/06/26 15:04:55;;;;;;;;;;;;;;;;;;5060055;28;46473;-78
2022/06/26 15:07:21;;;;;;;;;;;;;;;;;;5035803;28;46886;-77
2022/06/26 15:09:47;;;;;;;;;;;;;;;;;;5064136;28;45964;-77
2022/06/26 15:12:13;;;;;;;;;;;;;;;;;;5063586;28;46376;-77
2022/06/26 15:14:47;;;;;;;;;;;;;;;;;;5056217;28;43646;-78
2022/06/26 15:17:14;;;;;;;;;;;;;;;;;;5060562;28;48561;-77
2022/06/26 15:19:40;;;;;;;;;;;;;;;;;;5059538;28;48007;-77
2022/06/26 15:22:06;;;;;;;;;;;;;;;;;;5055893;28;45960;-79
2022/06/26 15:24:32;;;;;;;;;;;;;;;;;;5037643;28;47643;-77
2022/06/26 15:26:58;;;;;;;;;;;;;;;;;;5036058;28;48127;-75
2022/06/26 15:29:35;;;;;;;;;;;;;;;;;;5060717;28;46138;-76
2022/06/26 15:32:02;;;;;;;;;;;;;;;;;;5063261;28;46971;-75
2022/06/26 15:34:28;;;;;;;;;;;;;;;;;;5050492;28;43500;-75
2022/06/26 15:36:54;;;;;;;;;;;;;;;;;;5061969;28;46409;-75
2022/06/26 15:39:20;;;;;;;;;;;;;;;;;;5058153;28;47275;-75
2022/06/26 15:41:47;;;;;;;;;;;;;;;;;;5058154;28;43999;-75
2022/06/26 15:44:13;;;;;;;;;;;;;;;;;;5057268;28;46442;-75
2022/06/26 15:46:39;;;;;;;;;;;;;;;;;;5058193;28;46056;-74
2022/06/26 15:49:08;;;;;;;;;;;;;;;;;;5056652;28;46267;-75
2022/06/26 15:51:34;;;;;;;;;;;;;;;;;;5064116;28;48557;-75
2022/06/26 15:54:03;;;;;;;;;;;;;;;;;;5042386;28;44586;-76
2022/06/26 15:56:29;;;;;;;;;;;;;;;;;;5042383;28;48732;-75
2022/06/26 15:58:56;;;;;;;;;;;;;;;;;;5055240;28;48434;-75
2022/06/26 16:01:22;;;;;;;;;;;;;;;;;;5043582;28;45156;-75
2022/06/26 16:03:48;;;;;;;;;;;;;;;;;;5044688;28;45088;-76
2022/06/26 16:06:14;;;;;;;;;;;;;;;;;;5057167;28;48090;-75
2022/06/26 16:08:41;;;;;;;;;;;;;;;;;;5056741;28;46144;-75
2022/06/26 16:11:07;;;;;;;;;;;;;;;;;;5042447;28;46842;-75
2022/06/26 16:13:33;;;;;;;;;;;;;;;;;;5042017;28;47018;-75
2022/06/26 16:16:00;;;;;;;;;;;;;;;;;;5061500;28;47787;-74
2022/06/26 16:18:27;;;;;;;;;;;;;;;;;;5031886;28;47059;-76
2022/06/26 16:20:54;;;;;;;;;;;;;;;;;;5058991;28;44712;-75
2022/06/26 16:26:17;;;;;;;;;;;;;;;;;;5051174;28;46963;-75
2022/06/26 16:28:43;;;;;;;;;;;;;;;;;;5039752;28;44591;-75
2022/06/26 16:31:10;;;;;;;;;;;;;;;;;;5049587;28;47832;-75
2022/06/26 16:33:36;;;;;;;;;;;;;;;;;;5048816;28;45793;-75
2022/06/26 16:36:02;;;;;;;;;;;;;;;;;;5060686;28;42428;-75
2022/06/26 16:38:28;;;;;;;;;;;;;;;;;;5058208;28;48127;-76
2022/06/26 16:40:55;;;;;;;;;;;;;;;;;;5043730;28;45813;-75
2022/06/26 16:43:21;;;;;;;;;;;;;;;;;;5036725;28;43960;-77
2022/06/26 16:45:47;;;;;;;;;;;;;;;;;;5060616;28;47966;-76
2022/06/26 16:48:14;;;;;;;;;;;;;;;;;;5044523;28;46250;-76
2022/06/26 16:50:40;;;;;;;;;;;;;;;;;;5054423;28;46396;-76
2022/06/26 16:53:10;;;;;;;;;;;;;;;;;;5062188;28;47679;-77
2022/06/26 16:55:38;;;;;;;;;;;;;;;;;;5058380;28;45690;-76
2022/06/26 16:58:04;;;;;;;;;;;;;;;;;;5057893;28;45493;-76
2022/06/26 17:00:31;;;;;;;;;;;;;;;;;;5061774;28;44616;-76
2022/06/26 17:02:57;;;;;;;;;;;;;;;;;;5058932;28;47613;-76